sensor_id;sensor_type;location;lat;lon;timestamp;pressure;altitude;pressure_sealevel;temperature;humidity
74437;BME280;62868;52.360;30.424;2022-11-23T00:04:42;1020.2;;;1.5;64.2
74437;BME280;62868;52.360;30.424;2022-11-23T00:09:12;1020.2;;;1.5;64.3
74437;BME280;62868;52.360;30.424;2022-11-23T00:14:32;1020.1;;;1.5;64.3
74437;BME280;62868;52.360;30.424;2022-11-23T00:19:22;1020.2;;;1.5;64.4
74437;BME280;62868;52.360;30.424;2022-11-23T00:24:33;1020.3;;;1.4;64.3
74437;BME280;62868;52.360;30.424;2022-11-23T00:29:44;1020.3;;;1.3;64.3
74437;BME280;62868;52.360;30.424;2022-11-23T00:34:04;1020.3;;;1.3;64.3
74437;BME280;62868;52.360;30.424;2022-11-23T00:39:46;1020.3;;;1.2;64.4
74437;BME280;62868;52.360;30.424;2022-11-23T00:44:32;1020.4;;;1.2;64.4
74437;BME280;62868;52.360;30.424;2022-11-23T00:49:34;1020.5;;;1.2;64.4
74437;BME280;62868;52.360;30.424;2022-11-23T00:54:20;1020.5;;;1.2;64.5
74437;BME280;62868;52.360;30.424;2022-11-23T00:59:04;1020.5;;;1.2;64.5
74437;BME280;62868;52.360;30.424;2022-11-23T01:04:04;1020.5;;;1.1;64.5
74437;BME280;62868;52.360;30.424;2022-11-23T01:09:44;1020.5;;;1.2;64.5
74437;BME280;62868;52.360;30.424;2022-11-23T01:14:24;1020.4;;;1.2;64.5
74437;BME280;62868;52.360;30.424;2022-11-23T01:19:46;1020.4;;;1.3;64.5
74437;BME280;62868;52.360;30.424;2022-11-23T01:24:22;1020.4;;;1.3;64.5
74437;BME280;62868;52.360;30.424;2022-11-23T01:29:36;1020.4;;;1.3;64.5
74437;BME280;62868;52.360;30.424;2022-11-23T01:34:28;1020.5;;;1.3;64.5
74437;BME280;62868;52.360;30.424;2022-11-23T01:39:50;1020.6;;;1.2;64.6
74437;BME280;62868;52.360;30.424;2022-11-23T01:44:50;1020.6;;;1.3;64.6
74437;BME280;62868;52.360;30.424;2022-11-23T01:49:22;1020.6;;;1.3;64.7
74437;BME280;62868;52.360;30.424;2022-11-23T01:54:47;1020.6;;;1.3;64.7
74437;BME280;62868;52.360;30.424;2022-11-23T01:59:34;1020.7;;;1.3;64.7
74437;BME280;62868;52.360;30.424;2022-11-23T02:04:16;1020.7;;;1.3;64.7
74437;BME280;62868;52.360;30.424;2022-11-23T02:09:04;1020.7;;;1.4;64.7
74437;BME280;62868;52.360;30.424;2022-11-23T02:14:04;1020.6;;;1.3;64.8
74437;BME280;62868;52.360;30.424;2022-11-23T02:19:25;1020.6;;;1.4;64.8
74437;BME280;62868;52.360;30.424;2022-11-23T02:24:48;1020.6;;;1.4;64.8
74437;BME280;62868;52.360;30.424;2022-11-23T02:29:28;1020.6;;;1.3;64.9
74437;BME280;62868;52.360;30.424;2022-11-23T02:34:50;1020.6;;;1.3;64.9
74437;BME280;62868;52.360;30.424;2022-11-23T02:39:06;1020.7;;;1.3;64.9
74437;BME280;62868;52.360;30.424;2022-11-23T02:44:38;1020.7;;;1.3;64.9
74437;BME280;62868;52.360;30.424;2022-11-23T02:49:04;1020.8;;;1.3;64.9
74437;BME280;62868;52.360;30.424;2022-11-23T02:54:18;1020.8;;;1.3;64.8
74437;BME280;62868;52.360;30.424;2022-11-23T02:59:48;1020.8;;;1.3;64.8
74437;BME280;62868;52.360;30.424;2022-11-23T03:04:04;1020.8;;;1.3;64.9
74437;BME280;62868;52.360;30.424;2022-11-23T03:09:46;1020.8;;;1.3;64.9
74437;BME280;62868;52.360;30.424;2022-11-23T03:14:36;1020.8;;;1.3;64.9
74437;BME280;62868;52.360;30.424;2022-11-23T03:19:38;1020.8;;;1.3;64.8
74437;BME280;62868;52.360;30.424;2022-11-23T03:24:16;1020.9;;;1.3;64.8
74437;BME280;62868;52.360;30.424;2022-11-23T03:29:14;1020.9;;;1.3;64.8
74437;BME280;62868;52.360;30.424;2022-11-23T03:34:22;1020.8;;;1.3;64.8
74437;BME280;62868;52.360;30.424;2022-11-23T03:39:46;1020.8;;;1.3;64.8
74437;BME280;62868;52.360;30.424;2022-11-23T03:44:04;1020.8;;;1.3;64.8
74437;BME280;62868;52.360;30.424;2022-11-23T03:49:46;1020.9;;;1.3;64.9
74437;BME280;62868;52.360;30.424;2022-11-23T03:54:16;1020.8;;;1.3;64.8
74437;BME280;62868;52.360;30.424;2022-11-23T03:59:36;1020.8;;;1.3;64.9
74437;BME280;62868;52.360;30.424;2022-11-23T04:04:24;1020.9;;;1.2;64.9
74437;BME280;62868;52.360;30.424;2022-11-23T04:09:36;1020.9;;;1.2;64.8
74437;BME280;62868;52.360;30.424;2022-11-23T04:14:46;1020.8;;;1.3;64.8
74437;BME280;62868;52.360;30.424;2022-11-23T04:19:16;1020.9;;;1.3;64.8
74437;BME280;62868;52.360;30.424;2022-11-23T04:24:34;1021;;;1.2;64.8
74437;BME280;62868;52.360;30.424;2022-11-23T04:29:26;1021;;;1.3;64.8
74437;BME280;62868;52.360;30.424;2022-11-23T04:34:38;1021;;;1.3;64.9
74437;BME280;62868;52.360;30.424;2022-11-23T04:39:24;1021.1;;;1.3;64.9
74437;BME280;62868;52.360;30.424;2022-11-23T04:44:16;1021.1;;;1.3;64.9
74437;BME280;62868;52.360;30.424;2022-11-23T04:49:26;1021.2;;;1.3;64.9
74437;BME280;62868;52.360;30.424;2022-11-23T04:54:48;1021.3;;;1.3;64.9
74437;BME280;62868;52.360;30.424;2022-11-23T04:59:26;1021.3;;;1.3;64.9
74437;BME280;62868;52.360;30.424;2022-11-23T05:04:48;1021.3;;;1.3;64.9
74437;BME280;62868;52.360;30.424;2022-11-23T05:09:16;1021.3;;;1.3;65
74437;BME280;62868;52.360;30.424;2022-11-23T05:14:38;1021.4;;;1.3;64.9
74437;BME280;62868;52.360;30.424;2022-11-23T05:19:26;1021.5;;;1.2;64.9
74437;BME280;62868;52.360;30.424;2022-11-23T05:24:38;1021.5;;;1.2;64.9
74437;BME280;62868;52.360;30.424;2022-11-23T05:29:48;1021.5;;;1.2;64.9
74437;BME280;62868;52.360;30.424;2022-11-23T05:34:04;1021.6;;;1.2;65
74437;BME280;62868;52.360;30.424;2022-11-23T05:39:50;1021.5;;;1.2;64.9
74437;BME280;62868;52.360;30.424;2022-11-23T05:44:36;1021.5;;;1.2;64.9
74437;BME280;62868;52.360;30.424;2022-11-23T05:49:40;1021.6;;;1.3;64.9
74437;BME280;62868;52.360;30.424;2022-11-23T05:54:12;1021.7;;;1.3;64.9
74437;BME280;62868;52.360;30.424;2022-11-23T05:59:18;1021.7;;;1.4;64.9
74437;BME280;62868;52.360;30.424;2022-11-23T06:04:04;1021.6;;;1.4;64.9
74437;BME280;62868;52.360;30.424;2022-11-23T06:09:50;1021.6;;;1.5;64.9
74437;BME280;62868;52.360;30.424;2022-11-23T06:14:26;1021.7;;;1.5;64.9
74437;BME280;62868;52.360;30.424;2022-11-23T06:19:48;1021.7;;;1.6;64.9
74437;BME280;62868;52.360;30.424;2022-11-23T06:24:12;1021.7;;;1.6;64.8
74437;BME280;62868;52.360;30.424;2022-11-23T06:29:16;1021.7;;;1.6;64.8
74437;BME280;62868;52.360;30.424;2022-11-23T06:34:26;1021.7;;;1.6;64.8
74437;BME280;62868;52.360;30.424;2022-11-23T06:39:38;1021.8;;;1.7;64.7
74437;BME280;62868;52.360;30.424;2022-11-23T06:44:38;1021.8;;;1.8;64.7
74437;BME280;62868;52.360;30.424;2022-11-23T06:49:04;1021.7;;;1.8;64.7
74437;BME280;62868;52.360;30.424;2022-11-23T06:54:04;1021.8;;;1.9;64.6
74437;BME280;62868;52.360;30.424;2022-11-23T06:59:48;1021.8;;;2.1;64.6
74437;BME280;62868;52.360;30.424;2022-11-23T07:04:40;1021.9;;;2.1;64.5
74437;BME280;62868;52.360;30.424;2022-11-23T07:09:22;1021.8;;;2.2;64.5
74437;BME280;62868;52.360;30.424;2022-11-23T07:14:26;1021.8;;;2.3;64.3
74437;BME280;62868;52.360;30.424;2022-11-23T07:19:04;1021.9;;;2.4;64.2
74437;BME280;62868;52.360;30.424;2022-11-23T07:24:48;1021.9;;;2.5;64.1
74437;BME280;62868;52.360;30.424;2022-11-23T07:29:26;1022;;;2.6;64.1
74437;BME280;62868;52.360;30.424;2022-11-23T07:34:46;1022;;;2.7;64
74437;BME280;62868;52.360;30.424;2022-11-23T07:39:24;1022.1;;;2.7;63.9
74437;BME280;62868;52.360;30.424;2022-11-23T07:44:24;1022;;;2.8;63.8
74437;BME280;62868;52.360;30.424;2022-11-23T07:49:24;1022.1;;;2.9;63.7
74437;BME280;62868;52.360;30.424;2022-11-23T07:54:06;1022.1;;;2.9;63.6
74437;BME280;62868;52.360;30.424;2022-11-23T07:59:48;1022.2;;;3;63.6
74437;BME280;62868;52.360;30.424;2022-11-23T08:04:16;1022.1;;;3.1;63.5
74437;BME280;62868;52.360;30.424;2022-11-23T08:09:16;1022.1;;;3.1;63.5
74437;BME280;62868;52.360;30.424;2022-11-23T08:14:52;1022.2;;;3.1;63.5
74437;BME280;62868;52.360;30.424;2022-11-23T08:19:42;1022.3;;;3.1;63.5
74437;BME280;62868;52.360;30.424;2022-11-23T08:24:24;1022.4;;;3.1;63.3
74437;BME280;62868;52.360;30.424;2022-11-23T08:29:14;1022.4;;;3.2;63.2
74437;BME280;62868;52.360;30.424;2022-11-23T08:34:04;1022.4;;;3.2;63.1
74437;BME280;62868;52.360;30.424;2022-11-23T08:39:52;1022.4;;;3.1;63
74437;BME280;62868;52.360;30.424;2022-11-23T08:44:04;1022.4;;;3.1;62.9
74437;BME280;62868;52.360;30.424;2022-11-23T08:49:46;1022.5;;;3.1;62.8
74437;BME280;62868;52.360;30.424;2022-11-23T08:54:04;1022.5;;;3;62.7
74437;BME280;62868;52.360;30.424;2022-11-23T08:59:04;1022.5;;;3;62.6
74437;BME280;62868;52.360;30.424;2022-11-23T09:04:16;1022.5;;;3;62.6
74437;BME280;62868;52.360;30.424;2022-11-23T09:09:36;1022.6;;;3.1;62.5
74437;BME280;62868;52.360;30.424;2022-11-23T09:14:36;1022.5;;;3.2;62.3
74437;BME280;62868;52.360;30.424;2022-11-23T09:19:12;1022.5;;;3.3;62.3
74437;BME280;62868;52.360;30.424;2022-11-23T09:24:16;1022.5;;;3.2;62.3
74437;BME280;62868;52.360;30.424;2022-11-23T09:29:46;1022.5;;;3.1;62.4
74437;BME280;62868;52.360;30.424;2022-11-23T09:34:34;1022.6;;;3;62.4
74437;BME280;62868;52.360;30.424;2022-11-23T09:39:04;1022.7;;;3;62.3
74437;BME280;62868;52.360;30.424;2022-11-23T09:44:20;1022.7;;;3.1;62.3
74437;BME280;62868;52.360;30.424;2022-11-23T09:49:39;1022.7;;;3.1;62.3
74437;BME280;62868;52.360;30.424;2022-11-23T09:54:51;1022.6;;;3.1;62.2
74437;BME280;62868;52.360;30.424;2022-11-23T09:59:17;1022.6;;;3.2;62.2
74437;BME280;62868;52.360;30.424;2022-11-23T10:04:49;1022.6;;;3.3;62.1
74437;BME280;62868;52.360;30.424;2022-11-23T10:09:28;1022.6;;;3.3;62.1
74437;BME280;62868;52.360;30.424;2022-11-23T10:14:30;1022.6;;;3.4;62
74437;BME280;62868;52.360;30.424;2022-11-23T10:19:38;1022.6;;;3.3;62
74437;BME280;62868;52.360;30.424;2022-11-23T10:24:09;1022.6;;;3.3;61.9
74437;BME280;62868;52.360;30.424;2022-11-23T10:29:36;1022.5;;;3.3;61.8
74437;BME280;62868;52.360;30.424;2022-11-23T10:34:43;1022.5;;;3.3;61.8
74437;BME280;62868;52.360;30.424;2022-11-23T10:39:09;1022.4;;;3.2;61.8
74437;BME280;62868;52.360;30.424;2022-11-23T10:44:46;1022.4;;;3.1;61.8
74437;BME280;62868;52.360;30.424;2022-11-23T10:49:55;1022.4;;;3.1;61.8
74437;BME280;62868;52.360;30.424;2022-11-23T10:54:16;1022.5;;;3;61.8
74437;BME280;62868;52.360;30.424;2022-11-23T10:59:47;1022.5;;;3;61.8
74437;BME280;62868;52.360;30.424;2022-11-23T11:04:21;1022.5;;;2.9;61.8
74437;BME280;62868;52.360;30.424;2022-11-23T11:09:49;1022.6;;;3;61.8
74437;BME280;62868;52.360;30.424;2022-11-23T11:14:19;1022.6;;;3;61.8
74437;BME280;62868;52.360;30.424;2022-11-23T11:19:38;1022.6;;;3.1;61.7
74437;BME280;62868;52.360;30.424;2022-11-23T11:24:13;1022.8;;;3.1;61.7
74437;BME280;62868;52.360;30.424;2022-11-23T11:29:05;1022.7;;;3.2;61.8
74437;BME280;62868;52.360;30.424;2022-11-23T11:34:27;1022.8;;;3.2;61.8
74437;BME280;62868;52.360;30.424;2022-11-23T11:39:37;1022.7;;;3.2;61.8
74437;BME280;62868;52.360;30.424;2022-11-23T11:44:36;1022.7;;;3.2;61.8
74437;BME280;62868;52.360;30.424;2022-11-23T11:49:39;1022.7;;;3.1;61.8
74437;BME280;62868;52.360;30.424;2022-11-23T11:54:19;1022.7;;;3.1;61.7
74437;BME280;62868;52.360;30.424;2022-11-23T11:59:46;1022.7;;;3.1;61.7
74437;BME280;62868;52.360;30.424;2022-11-23T12:04:49;1022.7;;;2.9;61.8
74437;BME280;62868;52.360;30.424;2022-11-23T12:09:25;1022.7;;;2.9;61.8
74437;BME280;62868;52.360;30.424;2022-11-23T12:14:36;1022.7;;;2.9;61.7
74437;BME280;62868;52.360;30.424;2022-11-23T12:19:17;1022.6;;;3;61.7
74437;BME280;62868;52.360;30.424;2022-11-23T12:24:50;1022.6;;;2.9;61.7
74437;BME280;62868;52.360;30.424;2022-11-23T12:29:30;1022.7;;;3;61.8
74437;BME280;62868;52.360;30.424;2022-11-23T12:34:40;1022.7;;;2.9;61.8
74437;BME280;62868;52.360;30.424;2022-11-23T12:39:30;1022.7;;;2.8;61.9
74437;BME280;62868;52.360;30.424;2022-11-23T12:44:12;1022.8;;;2.8;62
74437;BME280;62868;52.360;30.424;2022-11-23T12:49:31;1022.8;;;2.7;62
74437;BME280;62868;52.360;30.424;2022-11-23T12:54:39;1022.8;;;2.7;62
74437;BME280;62868;52.360;30.424;2022-11-23T12:59:41;1022.8;;;2.7;62.1
74437;BME280;62868;52.360;30.424;2022-11-23T13:04:45;1022.9;;;2.7;62.1
74437;BME280;62868;52.360;30.424;2022-11-23T13:09:11;1022.9;;;2.6;62.1
74437;BME280;62868;52.360;30.424;2022-11-23T13:14:50;1022.9;;;2.5;62.1
74437;BME280;62868;52.360;30.424;2022-11-23T13:20:01;1023;;;2.4;62.1
74437;BME280;62868;52.360;30.424;2022-11-23T13:24:22;1023.1;;;2.3;62.2
74437;BME280;62868;52.360;30.424;2022-11-23T13:29:46;1023.1;;;2.3;62.3
74437;BME280;62868;52.360;30.424;2022-11-23T13:34:41;1023.2;;;2.3;62.4
74437;BME280;62868;52.360;30.424;2022-11-23T13:39:59;1023.2;;;2.3;62.4
74437;BME280;62868;52.360;30.424;2022-11-23T13:44:18;1023.2;;;2.3;62.4
74437;BME280;62868;52.360;30.424;2022-11-23T13:49:38;1023.3;;;2.2;62.4
74437;BME280;62868;52.360;30.424;2022-11-23T13:54:18;1023.3;;;2.1;62.5
74437;BME280;62868;52.360;30.424;2022-11-23T13:59:29;1023.3;;;2.1;62.6
74437;BME280;62868;52.360;30.424;2022-11-23T14:04:30;1023.3;;;1.9;62.6
74437;BME280;62868;52.360;30.424;2022-11-23T14:09:42;1023.3;;;1.9;62.6
74437;BME280;62868;52.360;30.424;2022-11-23T14:14:33;1023.3;;;1.9;62.7
74437;BME280;62868;52.360;30.424;2022-11-23T14:19:41;1023.4;;;1.8;62.7
74437;BME280;62868;52.360;30.424;2022-11-23T14:24:23;1023.4;;;1.7;62.8
74437;BME280;62868;52.360;30.424;2022-11-23T14:29:57;1023.4;;;1.7;62.8
74437;BME280;62868;52.360;30.424;2022-11-23T14:34:54;1023.4;;;1.7;62.9
74437;BME280;62868;52.360;30.424;2022-11-23T14:40:00;1023.4;;;1.6;63
74437;BME280;62868;52.360;30.424;2022-11-23T14:44:38;1023.4;;;1.6;63
74437;BME280;62868;52.360;30.424;2022-11-23T14:49:16;1023.5;;;1.6;63
74437;BME280;62868;52.360;30.424;2022-11-23T14:54:49;1023.5;;;1.7;63.1
74437;BME280;62868;52.360;30.424;2022-11-23T14:59:27;1023.5;;;1.7;63.1
74437;BME280;62868;52.360;30.424;2022-11-23T15:04:20;1023.6;;;1.8;63.2
74437;BME280;62868;52.360;30.424;2022-11-23T15:09:53;1023.6;;;1.8;63.2
74437;BME280;62868;52.360;30.424;2022-11-23T15:14:30;1023.7;;;1.8;63.2
74437;BME280;62868;52.360;30.424;2022-11-23T15:19:40;1023.8;;;1.8;63.2
74437;BME280;62868;52.360;30.424;2022-11-23T15:24:40;1023.8;;;1.7;63.2
74437;BME280;62868;52.360;30.424;2022-11-23T15:29:51;1023.8;;;1.7;63.2
74437;BME280;62868;52.360;30.424;2022-11-23T15:34:48;1023.9;;;1.7;63.2
74437;BME280;62868;52.360;30.424;2022-11-23T15:39:04;1023.9;;;1.7;63.2
74437;BME280;62868;52.360;30.424;2022-11-23T15:44:40;1023.9;;;1.6;63.3
74437;BME280;62868;52.360;30.424;2022-11-23T15:49:28;1024;;;1.7;63.3
74437;BME280;62868;52.360;30.424;2022-11-23T15:54:42;1024.1;;;1.8;63.3
74437;BME280;62868;52.360;30.424;2022-11-23T15:59:27;1024.1;;;1.8;63.3
74437;BME280;62868;52.360;30.424;2022-11-23T16:04:23;1024.1;;;1.9;63.4
74437;BME280;62868;52.360;30.424;2022-11-23T16:09:33;1024.1;;;1.9;63.4
74437;BME280;62868;52.360;30.424;2022-11-23T16:14:53;1024.2;;;1.9;63.4
74437;BME280;62868;52.360;30.424;2022-11-23T16:19:05;1024.2;;;1.9;63.5
74437;BME280;62868;52.360;30.424;2022-11-23T16:24:53;1024.2;;;1.7;63.4
74437;BME280;62868;52.360;30.424;2022-11-23T16:29:04;1024.2;;;1.6;63.5
74437;BME280;62868;52.360;30.424;2022-11-23T16:34:40;1024.2;;;1.5;63.5
74437;BME280;62868;52.360;30.424;2022-11-23T16:39:40;1024.2;;;1.4;63.5
74437;BME280;62868;52.360;30.424;2022-11-23T16:44:52;1024.2;;;1.4;63.5
74437;BME280;62868;52.360;30.424;2022-11-23T16:49:49;1024.3;;;1.4;63.5
74437;BME280;62868;52.360;30.424;2022-11-23T16:54:16;1024.3;;;1.3;63.5
74437;BME280;62868;52.360;30.424;2022-11-23T16:59:40;1024.4;;;1.2;63.6
74437;BME280;62868;52.360;30.424;2022-11-23T17:04:50;1024.4;;;1.1;63.6
74437;BME280;62868;52.360;30.424;2022-11-23T17:09:28;1024.4;;;1;63.7
74437;BME280;62868;52.360;30.424;2022-11-23T17:14:24;1024.5;;;0.8;63.8
74437;BME280;62868;52.360;30.424;2022-11-23T17:19:15;1024.5;;;0.7;64
74437;BME280;62868;52.360;30.424;2022-11-23T17:24:30;1024.5;;;0.6;64.1
74437;BME280;62868;52.360;30.424;2022-11-23T17:29:55;1024.5;;;0.7;64.1
74437;BME280;62868;52.360;30.424;2022-11-23T17:34:28;1024.6;;;0.6;64.2
74437;BME280;62868;52.360;30.424;2022-11-23T17:39:50;1024.6;;;0.6;64.3
74437;BME280;62868;52.360;30.424;2022-11-23T17:44:15;1024.6;;;0.5;64.4
74437;BME280;62868;52.360;30.424;2022-11-23T17:49:40;1024.6;;;0.5;64.5
74437;BME280;62868;52.360;30.424;2022-11-23T17:54:40;1024.6;;;0.6;64.6
74437;BME280;62868;52.360;30.424;2022-11-23T17:59:51;1024.6;;;0.6;64.6
74437;BME280;62868;52.360;30.424;2022-11-23T18:04:50;1024.7;;;0.6;64.6
74437;BME280;62868;52.360;30.424;2022-11-23T18:09:04;1024.8;;;0.5;64.7
74437;BME280;62868;52.360;30.424;2022-11-23T18:14:40;1024.8;;;0.5;64.7
74437;BME280;62868;52.360;30.424;2022-11-23T18:19:04;1024.8;;;0.5;64.7
74437;BME280;62868;52.360;30.424;2022-11-23T18:24:40;1024.8;;;0.5;64.7
74437;BME280;62868;52.360;30.424;2022-11-23T18:29:16;1024.7;;;0.5;64.8
74437;BME280;62868;52.360;30.424;2022-11-23T18:34:16;1024.6;;;0.4;64.8
74437;BME280;62868;52.360;30.424;2022-11-23T18:39:14;1024.6;;;0.4;64.9
74437;BME280;62868;52.360;30.424;2022-11-23T18:44:50;1024.5;;;0.4;64.9
74437;BME280;62868;52.360;30.424;2022-11-23T18:49:22;1024.5;;;0.4;64.9
74437;BME280;62868;52.360;30.424;2022-11-23T18:54:50;1024.6;;;0.4;64.9
74437;BME280;62868;52.360;30.424;2022-11-23T18:59:05;1024.5;;;0.3;65
74437;BME280;62868;52.360;30.424;2022-11-23T19:04:34;1024.5;;;0.2;65
74437;BME280;62868;52.360;30.424;2022-11-23T19:09:38;1024.4;;;0.3;65
74437;BME280;62868;52.360;30.424;2022-11-23T19:14:48;1024.4;;;0.3;65
74437;BME280;62868;52.360;30.424;2022-11-23T19:19:48;1024.3;;;0.3;65
74437;BME280;62868;52.360;30.424;2022-11-23T19:24:05;1024.2;;;0.3;65
74437;BME280;62868;52.360;30.424;2022-11-23T19:29:38;1024.1;;;0.1;65.1
74437;BME280;62868;52.360;30.424;2022-11-23T19:34:26;1024.1;;;0;65.2
74437;BME280;62868;52.360;30.424;2022-11-23T19:39:36;1024.2;;;-0.1;65.2
74437;BME280;62868;52.360;30.424;2022-11-23T19:44:24;1024.2;;;-0.1;65.2
74437;BME280;62868;52.360;30.424;2022-11-23T19:49:16;1024.2;;;-0.2;65.3
74437;BME280;62868;52.360;30.424;2022-11-23T19:54:26;1024.3;;;-0.3;65.3
74437;BME280;62868;52.360;30.424;2022-11-23T19:59:46;1024.3;;;-0.3;65.4
74437;BME280;62868;52.360;30.424;2022-11-23T20:04:36;1024.5;;;-0.3;65.4
74437;BME280;62868;52.360;30.424;2022-11-23T20:09:48;1024.6;;;-0.3;65.5
74437;BME280;62868;52.360;30.424;2022-11-23T20:14:05;1024.6;;;-0.4;65.5
74437;BME280;62868;52.360;30.424;2022-11-23T20:19:34;1024.5;;;-0.3;65.6
74437;BME280;62868;52.360;30.424;2022-11-23T20:24:46;1024.6;;;-0.2;65.5
74437;BME280;62868;52.360;30.424;2022-11-23T20:29:34;1024.6;;;-0.1;65.5
74437;BME280;62868;52.360;30.424;2022-11-23T20:34:48;1024.6;;;-0.1;65.5
74437;BME280;62868;52.360;30.424;2022-11-23T20:39:14;1024.6;;;-0.2;65.5
74437;BME280;62868;52.360;30.424;2022-11-23T20:44:48;1024.6;;;-0.3;65.6
74437;BME280;62868;52.360;30.424;2022-11-23T20:49:36;1024.5;;;-0.4;65.6
74437;BME280;62868;52.360;30.424;2022-11-23T20:54:38;1024.5;;;-0.4;65.6
74437;BME280;62868;52.360;30.424;2022-11-23T20:59:22;1024.6;;;-0.4;65.7
74437;BME280;62868;52.360;30.424;2022-11-23T21:04:16;1024.5;;;-0.4;65.7
74437;BME280;62868;52.360;30.424;2022-11-23T21:09:36;1024.4;;;-0.4;65.8
74437;BME280;62868;52.360;30.424;2022-11-23T21:14:50;1024.5;;;-0.4;65.8
74437;BME280;62868;52.360;30.424;2022-11-23T21:19:25;1024.5;;;-0.4;65.8
74437;BME280;62868;52.360;30.424;2022-11-23T21:24:48;1024.5;;;-0.5;65.9
74437;BME280;62868;52.360;30.424;2022-11-23T21:29:14;1024.5;;;-0.6;66
74437;BME280;62868;52.360;30.424;2022-11-23T21:34:36;1024.5;;;-0.6;66
74437;BME280;62868;52.360;30.424;2022-11-23T21:39:24;1024.6;;;-0.6;66.1
74437;BME280;62868;52.360;30.424;2022-11-23T21:44:36;1024.6;;;-0.7;66.2
74437;BME280;62868;52.360;30.424;2022-11-23T21:49:50;1024.7;;;-0.7;66.3
74437;BME280;62868;52.360;30.424;2022-11-23T21:54:13;1024.6;;;-0.6;66.3
74437;BME280;62868;52.360;30.424;2022-11-23T21:59:44;1024.6;;;-0.7;66.3
74437;BME280;62868;52.360;30.424;2022-11-23T22:04:30;1024.7;;;-0.6;66.3
74437;BME280;62868;52.360;30.424;2022-11-23T22:09:34;1024.6;;;-0.5;66.4
74437;BME280;62868;52.360;30.424;2022-11-23T22:14:20;1024.5;;;-0.4;66.4
74437;BME280;62868;52.360;30.424;2022-11-23T22:19:15;1024.5;;;-0.4;66.4
74437;BME280;62868;52.360;30.424;2022-11-23T22:24:22;1024.6;;;-0.4;66.5
74437;BME280;62868;52.360;30.424;2022-11-23T22:29:46;1024.6;;;-0.4;66.5
74437;BME280;62868;52.360;30.424;2022-11-23T22:34:22;1024.6;;;-0.4;66.5
74437;BME280;62868;52.360;30.424;2022-11-23T22:39:46;1024.5;;;-0.3;66.5
74437;BME280;62868;52.360;30.424;2022-11-23T22:44:25;1024.5;;;-0.3;66.5
74437;BME280;62868;52.360;30.424;2022-11-23T22:49:34;1024.5;;;-0.2;66.5
74437;BME280;62868;52.360;30.424;2022-11-23T22:54:23;1024.5;;;-0.2;66.5
74437;BME280;62868;52.360;30.424;2022-11-23T22:59:33;1024.4;;;-0.2;66.5
74437;BME280;62868;52.360;30.424;2022-11-23T23:04:47;1024.4;;;-0.2;66.5
74437;BME280;62868;52.360;30.424;2022-11-23T23:09:12;1024.4;;;-0.3;66.5
74437;BME280;62868;52.360;30.424;2022-11-23T23:14:36;1024.3;;;-0.4;66.6
74437;BME280;62868;52.360;30.424;2022-11-23T23:19:34;1024.3;;;-0.4;66.6
74437;BME280;62868;52.360;30.424;2022-11-23T23:24:22;1024.3;;;-0.4;66.6
74437;BME280;62868;52.360;30.424;2022-11-23T23:29:04;1024.4;;;-0.4;66.6
74437;BME280;62868;52.360;30.424;2022-11-23T23:34:10;1024.5;;;-0.5;66.6
74437;BME280;62868;52.360;30.424;2022-11-23T23:39:24;1024.5;;;-0.5;66.7
74437;BME280;62868;52.360;30.424;2022-11-23T23:44:46;1024.5;;;-0.5;66.7
74437;BME280;62868;52.360;30.424;2022-11-23T23:49:22;1024.5;;;-0.4;66.7
74437;BME280;62868;52.360;30.424;2022-11-23T23:54:47;1024.5;;;-0.5;66.8
74437;BME280;62868;52.360;30.424;2022-11-23T23:59:15;1024.5;;;-0.4;66.8
